ADDS METAR Data INFO
IDs: Format: Raw Decoded Include TAF

Data at: 1231 UTC 25 Jul 2017

KINK 251153Z AUTO 12009KT 10SM CLR 23/19 A3005 RMK AO2 SLP130 70008 T02280189 10261 20228 53007
KINK 251053Z AUTO 13008KT 10SM CLR 23/19 A3004 RMK AO2 SLP129 T02330189
KINK 250953Z AUTO 13010KT 10SM CLR 23/19 A3003 RMK AO2 SLP117 T02330189
KINK 250853Z AUTO 13008KT 10SM CLR 24/19 A3003 RMK AO2 SLP117 T02390189 57001
KINK 250753Z AUTO 13009KT 10SM CLR 24/19 A3003 RMK AO2 SLP116 T02440189
KINK 250653Z AUTO 13010KT 10SM CLR 26/19 A3003 RMK AO2 SLP119 T02560189
KINK 250553Z AUTO 13007KT 10SM CLR 26/19 A3003 RMK AO2 SLP118 T02610189 10317 20261 403610217 51016
KINK 250453Z AUTO 13009KT 10SM CLR 28/18 A3002 RMK AO2 SLP114 T02780183
KINK 250353Z AUTO 13006KT 10SM FEW085 28/18 A3001 RMK AO2 SLP111 T02830183
KINK 250253Z AUTO 22003KT 10SM CLR 29/21 A2998 RMK AO2 SLP103 T02890206 53016
KINK 250153Z AUTO 18005KT 10SM CLR 30/19 A2996 RMK AO2 SLP096 T03000194
KINK 250053Z AUTO 17006KT 10SM CLR 31/19 A2993 RMK AO2 SLP088 T03110194
KINK 242353Z AUTO 23007KT 10SM SCT040 BKN049 BKN110 29/21 A2993 RMK AO2 PK WND 23027/2254 RAE35 SLP089 P0002 60008 T02890211 10361 20250 58007
KINK 242302Z AUTO 23016G27KT 6SM -RA FEW032 BKN080 OVC110 26/21 A2994 RMK AO2 PK WND 23027/2254 P0001 T02610206
KINK 242253Z AUTO 23019G29KT 2SM +RA FEW035 BKN080 OVC095 25/21 A2995 RMK AO2 PK WND 21033/2241 WSHFT 2220 RAB40 SLP098 P0006 T02500211
KINK 242245Z AUTO 21023G33KT 1 3/4SM +RA BKN080 26/22 A2995 RMK AO2 PK WND 21033/2241 WSHFT 2220 RAB40 P0004 T02610217
KINK 242240Z AUTO 21019G29KT 7SM VCTS -RA BKN080 30/19 A2995 RMK AO2 PK WND 21029/2232 WSHFT 2220 LTG DSNT SW RAB40 P0000 T03000189
KINK 242230Z AUTO 20020G26KT 10SM VCTS FEW080 SCT110 31/17 A2995 RMK AO2 PK WND 20026/2230 LTG DSNT SW T03110172
KINK 242153Z AUTO 15008G18KT 10SM FEW075 36/15 A2993 RMK AO2 LTG DSNT SW SLP085 T03610150
KINK 242053Z AUTO 16013KT 10SM SCT070 SCT095 35/16 A2995 RMK AO2 SLP090 T03500161 58021
KINK 241953Z AUTO 09009G15KT 10SM CLR 35/17 A2998 RMK AO2 SLP099 T03500167 $
KINK 241853Z AUTO 13010KT 10SM CLR 33/17 A3000 RMK AO2 SLP108 T03330172 $
KINK 241753Z AUTO 15006KT 10SM CLR 33/18 A3002 RMK AO2 SLP114 T03280178 10328 20217 58006 $
KINK 241653Z AUTO 17004KT 10SM CLR 31/18 A3003 RMK AO2 SLP120 T03060178 $
KINK 241553Z AUTO 13004KT 10SM CLR 29/18 A3004 RMK AO2 SLP124 T02890178 $
KINK 241453Z AUTO 17004KT 10SM CLR 27/18 A3004 RMK AO2 SLP124 T02670183 51008 $
KINK 241353Z AUTO 14005KT 10SM CLR 25/19 A3004 RMK AO2 SLP124 T02500189
KINK 241253Z AUTO 00000KT 10SM CLR 22/19 A3003 RMK AO2 SLP121 T02220194
KINK 241153Z AUTO 11005KT 10SM CLR 22/19 A3001 RMK AO2 SLP114 T02220194 10250 20222 53001
KINK 241053Z AUTO 08003KT 10SM FEW120 23/20 A3000 RMK AO2 SLP112 T02280200
KINK 240953Z AUTO 07003KT 10SM FEW120 23/19 A3000 RMK AO2 SLP113 T02280194
KINK 240853Z AUTO 00000KT 10SM CLR 23/19 A3001 RMK AO2 SLP113 T02330194 58001
KINK 240753Z AUTO 10006KT 10SM BKN120 23/19 A3002 RMK AO2 SLP117 T02330194
KINK 240653Z AUTO 18006KT 10SM CLR 24/19 A3001 RMK AO2 SLP115 T02390194
KINK 240553Z AUTO 15009KT 10SM CLR 25/19 A3001 RMK AO2 SLP114 T02500194 10322 20250 403220217 50008
KINK 240453Z AUTO 15006KT 10SM SCT120 26/19 A3001 RMK AO2 SLP117 T02560194
KINK 240353Z AUTO 00000KT 10SM FEW120 26/21 A3000 RMK AO2 SLP114 T02560206
KINK 240253Z AUTO 00000KT 10SM CLR 27/19 A2998 RMK AO2 SLP108 T02670189 53012
KINK 240153Z AUTO 22006KT 10SM CLR 29/19 A2997 RMK AO2 LTG DSNT N SLP104 T02890189
KINK 240053Z AUTO 17014G17KT 10SM CLR 31/18 A2995 RMK AO2 SLP093 T03110183